N56Y KMYF-KSAN
Flight info
| Callsign | N56Y |
|---|---|
| Flight time | 0h -1m |
| Altitude | VFR |
| Route | |
| Aircraft | TBM9/L-VGD/C |
Departure
| Time | 2026-04-24 23:31 |
|---|---|
| Airport | Montgomery-Gibbs Executive Airport (KMYF) |
Arrival
| Time | 2026-04-24 23:30 |
|---|---|
| Airport | San Diego International Airport (KSAN) |
| Time | Latitude | Longitude | Altitude | Speed | Heading |
|---|---|---|---|---|---|
| 2026-04-24 23:29 | 32.81228 | -117.13735 | 423 ft | 0 kts | 115° |
| 2026-04-24 23:30 | 32.81229 | -117.13726 | 423 ft | 8 kts | 61° |
| 2026-04-24 23:30 | 32.81271 | -117.13736 | 421 ft | 5 kts | 24° |
| 2026-04-24 23:30 | 32.81242 | -117.13587 | 422 ft | 26 kts | 104° |
| 2026-04-24 23:30 | 32.81262 | -117.13545 | 421 ft | 1 kts | 21° |
| 2026-04-24 23:31 | 32.81355 | -117.13682 | 421 ft | 51 kts | 294° |
| 2026-04-24 23:31 | 32.81601 | -117.14301 | 534 ft | 106 kts | 294° |
| 2026-04-24 23:31 | 32.81963 | -117.15214 | 847 ft | 141 kts | 293° |
| 2026-04-24 23:31 | 32.82454 | -117.16396 | 1126 ft | 174 kts | 294° |
| 2026-04-24 23:32 | 32.83006 | -117.17767 | 1532 ft | 192 kts | 292° |
| 2026-04-24 23:32 | 32.83592 | -117.19236 | 1938 ft | 201 kts | 292° |
| 2026-04-24 23:32 | 32.84399 | -117.20624 | 2351 ft | 213 kts | 317° |
| 2026-04-24 23:32 | 32.85785 | -117.21276 | 2755 ft | 222 kts | 353° |
| 2026-04-24 23:33 | 32.87364 | -117.21251 | 2886 ft | 238 kts | 2° |
| 2026-04-24 23:33 | 32.88483 | -117.21159 | 2830 ft | 249 kts | 2° |
| 2026-04-24 23:33 | 32.90825 | -117.20954 | 2897 ft | 256 kts | 3° |
| 2026-04-24 23:33 | 32.92575 | -117.20515 | 2896 ft | 259 kts | 21° |
| 2026-04-24 23:34 | 32.93990 | -117.19210 | 2894 ft | 261 kts | 53° |
| 2026-04-24 23:34 | 32.94655 | -117.17228 | 2875 ft | 260 kts | 84° |
| 2026-04-24 23:34 | 32.94442 | -117.15125 | 2840 ft | 257 kts | 108° |
| 2026-04-24 23:34 | 32.93858 | -117.13122 | 2933 ft | 255 kts | 112° |
| 2026-04-24 23:35 | 32.93230 | -117.11153 | 3033 ft | 255 kts | 112° |
| 2026-04-24 23:35 | 32.92617 | -117.09176 | 3103 ft | 255 kts | 112° |
| 2026-04-24 23:35 | 32.92024 | -117.07192 | 3156 ft | 255 kts | 111° |
| 2026-04-24 23:35 | 32.91442 | -117.05199 | 3185 ft | 255 kts | 111° |
| 2026-04-24 23:36 | 32.90859 | -117.03200 | 3208 ft | 256 kts | 111° |
| 2026-04-24 23:36 | 32.90300 | -117.01344 | 4232 ft | 204 kts | 112° |
| 2026-04-24 23:36 | 32.89900 | -116.99943 | 5707 ft | 162 kts | 108° |
| 2026-04-24 23:36 | 32.89683 | -116.98626 | 6357 ft | 171 kts | 96° |
| 2026-04-24 23:37 | 32.89637 | -116.97059 | 6474 ft | 208 kts | 91° |
| 2026-04-24 23:37 | 32.89631 | -116.95206 | 6503 ft | 237 kts | 91° |
| 2026-04-24 23:37 | 32.89440 | -116.91130 | 6729 ft | 258 kts | 107° |
| 2026-04-24 23:38 | 32.88932 | -116.89868 | 6938 ft | 250 kts | 129° |
| 2026-04-24 23:38 | 32.87657 | -116.88519 | 7201 ft | 250 kts | 151° |
| 2026-04-24 23:38 | 32.85563 | -116.87159 | 6641 ft | 277 kts | 156° |
| 2026-04-24 23:38 | 32.83745 | -116.86116 | 5547 ft | 296 kts | 158° |
| 2026-04-24 23:39 | 32.81806 | -116.85550 | 4983 ft | 278 kts | 181° |
| 2026-04-24 23:39 | 32.79954 | -116.85752 | 4879 ft | 262 kts | 190° |
| 2026-04-24 23:39 | 32.78746 | -116.86008 | 4670 ft | 261 kts | 192° |
| 2026-04-24 23:39 | 32.76969 | -116.86421 | 4368 ft | 259 kts | 192° |
| 2026-04-24 23:40 | 32.75209 | -116.86817 | 4174 ft | 254 kts | 192° |
| 2026-04-24 23:40 | 32.73497 | -116.87177 | 4178 ft | 247 kts | 191° |
| 2026-04-24 23:40 | 32.71812 | -116.87506 | 4170 ft | 244 kts | 191° |
| 2026-04-24 23:40 | 32.70142 | -116.87821 | 4171 ft | 243 kts | 190° |
| 2026-04-24 23:41 | 32.68510 | -116.88272 | 4100 ft | 241 kts | 202° |
| 2026-04-24 23:41 | 32.67166 | -116.89449 | 3830 ft | 245 kts | 232° |
| 2026-04-24 23:41 | 32.66415 | -116.91251 | 3775 ft | 242 kts | 250° |
| 2026-04-24 23:41 | 32.65904 | -116.93136 | 3775 ft | 238 kts | 255° |
| 2026-04-24 23:42 | 32.65804 | -116.95047 | 3774 ft | 237 kts | 277° |
| 2026-04-24 23:42 | 32.66244 | -116.96933 | 3776 ft | 238 kts | 288° |
| 2026-04-24 23:42 | 32.66858 | -116.98790 | 3777 ft | 239 kts | 291° |
| 2026-04-24 23:42 | 32.67522 | -117.00604 | 3769 ft | 240 kts | 292° |
| 2026-04-24 23:43 | 32.68196 | -117.02381 | 3770 ft | 239 kts | 292° |
| 2026-04-24 23:43 | 32.68887 | -117.04183 | 3695 ft | 242 kts | 292° |
| 2026-04-24 23:43 | 32.69581 | -117.05982 | 3387 ft | 237 kts | 292° |
| 2026-04-24 23:43 | 32.70266 | -117.07740 | 3007 ft | 233 kts | 292° |
| 2026-04-24 23:44 | 32.70941 | -117.09473 | 2616 ft | 230 kts | 291° |
| 2026-04-24 23:44 | 32.71530 | -117.11213 | 2220 ft | 221 kts | 286° |
| 2026-04-24 23:44 | 32.71970 | -117.12845 | 1772 ft | 197 kts | 281° |
| 2026-04-24 23:44 | 32.72227 | -117.14377 | 1304 ft | 166 kts | 279° |
| 2026-04-24 23:45 | 32.72469 | -117.15363 | 1010 ft | 99 kts | 283° |
| 2026-04-24 23:45 | 32.72668 | -117.16133 | 608 ft | 123 kts | 284° |
| 2026-04-24 23:45 | 32.72961 | -117.17367 | 571 ft | 180 kts | 286° |
| 2026-04-24 23:45 | 32.73367 | -117.18898 | 576 ft | 201 kts | 286° |
| 2026-04-24 23:46 | 32.73793 | -117.20397 | 1055 ft | 168 kts | 287° |
| 2026-04-24 23:46 | 32.74190 | -117.21502 | 1170 ft | 136 kts | 306° |
| 2026-04-24 23:46 | 32.75073 | -117.21485 | 1130 ft | 158 kts | 41° |
| 2026-04-24 23:46 | 32.75371 | -117.20373 | 1064 ft | 135 kts | 105° |
| 2026-04-24 23:47 | 32.75131 | -117.19298 | 950 ft | 130 kts | 107° |
| 2026-04-24 23:47 | 32.74896 | -117.18169 | 967 ft | 153 kts | 109° |
| 2026-04-24 23:47 | 32.74629 | -117.16953 | 1156 ft | 150 kts | 107° |
| 2026-04-24 23:47 | 32.74417 | -117.15693 | 1215 ft | 157 kts | 108° |
| 2026-04-24 23:48 | 32.73793 | -117.14743 | 1155 ft | 153 kts | 172° |
| 2026-04-24 23:48 | 32.73006 | -117.15137 | 1279 ft | 111 kts | 240° |
| 2026-04-24 23:48 | 32.72806 | -117.16010 | 840 ft | 112 kts | 267° |
| 2026-04-24 23:48 | 32.72864 | -117.16943 | 384 ft | 115 kts | 280° |
| 2026-04-24 23:49 | 32.73060 | -117.17742 | 38 ft | 83 kts | 285° |
| 2026-04-24 23:49 | 32.73193 | -117.18281 | 19 ft | 55 kts | 284° |
| 2026-04-24 23:49 | 32.73300 | -117.18426 | 20 ft | 20 kts | 9° |
| 2026-04-24 23:49 | 32.73324 | -117.18364 | 19 ft | 0 kts | 105° |
| 2026-04-24 23:50 | 32.73318 | -117.18335 | 19 ft | 11 kts | 103° |